Terminal Aerodrome Forecast
Issued by NWS Cleveland, OH

Home | Current Version | Previous Version | Graphics & Text | Print | Product List | Glossary On
Versions: 1 2 3 4 5 6 7 8 9 10 11 12 13 14 15 16 17 18 19 20 21 22 23
000
FTUS41 KCLE 270800 AAA
TAFCAK
TAF AMD
KCAK 270858Z 2709/2806 34006KT 4SM -SN OVC020
      TEMPO 2709/2713 2SM -SN BKN012
     FM271300 34006KT 4SM -SN OVC020
      TEMPO 2713/2716 2SM -SN BKN012
     FM271700 34008KT P6SM OVC025
     FM280400 34005KT P6SM SKC=

USA.gov is the U.S. government's official web portal to all federal, state and local government web resources and services.